Time;durP1;ratioP1;P1;durP2;ratioP2;P2;SDS_P1;SDS_P2;PMS_P1;PMS_P2;Temp;Humidity;BMP_temperature;BMP_pressure;BME280_temperature;BME280_humidity;BME280_pressure;Samples;Min_cycle;Max_cycle;Signal;HPM_P1;HPM_P2
2022/08/24 00:02:16;;;;;;;26.60;23.83;;;20.80;99.90;;;;;;4914140;29;20048;-83
2022/08/24 00:04:42;;;;;;;26.05;23.23;;;20.70;99.90;;;;;;4928735;29;20141;-83
2022/08/24 00:07:08;;;;;;;25.88;22.23;;;20.70;99.90;;;;;;4901825;29;20067;-84
2022/08/24 00:09:34;;;;;;;28.38;24.05;;;20.70;99.90;;;;;;4899577;29;20048;-83
2022/08/24 00:12:01;;;;;;;26.17;22.65;;;20.70;99.90;;;;;;4927861;29;20069;-83
2022/08/24 00:14:26;;;;;;;30.48;24.65;;;20.60;99.90;;;;;;4900507;29;20127;-83
2022/08/24 00:16:53;;;;;;;27.55;23.85;;;20.60;99.90;;;;;;4929057;29;20090;-83
2022/08/24 00:19:19;;;;;;;30.52;24.83;;;20.50;99.90;;;;;;4916411;29;20047;-83
2022/08/24 00:21:45;;;;;;;32.47;25.98;;;20.50;99.90;;;;;;4922939;29;20047;-83
2022/08/24 00:24:10;;;;;;;29.13;25.95;;;20.50;99.90;;;;;;4914030;29;20111;-83
2022/08/24 00:26:37;;;;;;;27.92;24.98;;;20.50;99.90;;;;;;4918887;29;20055;-83
2022/08/24 00:29:03;;;;;;;28.67;25.67;;;20.40;99.90;;;;;;4930345;29;20044;-83
2022/08/24 00:31:29;;;;;;;28.55;22.48;;;20.40;99.90;;;;;;4920164;29;20055;-83
2022/08/24 00:33:55;;;;;;;27.17;24.00;;;20.40;99.90;;;;;;4919205;29;20129;-83
2022/08/24 00:36:21;;;;;;;29.60;23.30;;;20.40;99.90;;;;;;4920587;29;20103;-83
2022/08/24 00:38:47;;;;;;;25.77;23.17;;;20.30;99.90;;;;;;4914720;29;20042;-83
2022/08/24 00:41:14;;;;;;;27.15;23.48;;;20.30;99.90;;;;;;4927632;29;20043;-83
2022/08/24 00:43:53;;;;;;;26.65;23.92;;;20.30;99.90;;;;;;4901904;29;20046;-83
2022/08/24 00:46:27;;;;;;;30.08;25.45;;;20.30;99.90;;;;;;4935148;29;20048;-83
2022/08/24 00:49:11;;;;;;;27.90;25.05;;;20.30;99.90;;;;;;4932726;29;20504;-83
2022/08/24 00:51:47;;;;;;;29.27;24.80;;;20.20;99.90;;;;;;4916849;29;20039;-83
2022/08/24 00:54:15;;;;;;;31.05;25.98;;;20.20;99.90;;;;;;4931240;29;20068;-83
2022/08/24 00:56:47;;;;;;;30.63;26.20;;;20.10;99.90;;;;;;4916697;29;20058;-83
2022/08/24 00:59:23;;;;;;;28.33;25.38;;;20.10;99.90;;;;;;4938133;29;20064;-83
2022/08/24 01:01:53;;;;;;;28.65;25.67;;;20.10;99.90;;;;;;4918861;29;20118;-83
2022/08/24 01:04:27;;;;;;;28.90;25.80;;;20.10;99.90;;;;;;4918025;29;20039;-83
2022/08/24 01:06:54;;;;;;;25.90;22.88;;;20.00;99.90;;;;;;4915542;29;20042;-83
2022/08/24 01:09:20;;;;;;;30.13;26.90;;;20.00;99.90;;;;;;4906506;29;20051;-83
2022/08/24 01:11:47;;;;;;;29.10;26.00;;;20.00;99.90;;;;;;4921679;29;20051;-83
2022/08/24 01:14:12;;;;;;;31.42;26.98;;;19.90;99.90;;;;;;4936575;29;20048;-83
2022/08/24 01:19:42;;;;;;;29.52;26.40;;;19.90;99.90;;;;;;4924546;29;20164;-83
2022/08/24 01:22:19;;;;;;;27.52;24.52;;;19.80;99.90;;;;;;4925249;29;20047;-83
2022/08/24 01:24:46;;;;;;;27.35;24.48;;;19.80;99.90;;;;;;4916639;29;20043;-83
2022/08/24 01:27:14;;;;;;;26.65;23.27;;;19.80;99.90;;;;;;4913558;29;20043;-83
2022/08/24 01:29:42;;;;;;;26.95;24.08;;;19.70;99.90;;;;;;4933191;29;20043;-83
2022/08/24 01:32:09;;;;;;;27.20;24.30;;;19.70;99.90;;;;;;4930971;29;20493;-83
2022/08/24 01:34:35;;;;;;;28.77;25.80;;;19.70;99.90;;;;;;4930464;29;20040;-83
2022/08/24 01:37:02;;;;;;;29.73;26.35;;;19.70;99.90;;;;;;4931656;29;20040;-83
2022/08/24 01:39:34;;;;;;;32.08;27.67;;;19.60;99.90;;;;;;4928443;29;20043;-83
2022/08/24 01:42:01;;;;;;;31.17;28.05;;;19.60;99.90;;;;;;4930779;29;20094;-83
2022/08/24 01:44:33;;;;;;;30.95;27.80;;;19.50;99.90;;;;;;4916930;29;20051;-83
2022/08/24 01:47:00;;;;;;;29.95;26.85;;;19.50;99.90;;;;;;4913654;29;20043;-83
2022/08/24 01:49:29;;;;;;;31.70;27.38;;;19.50;99.90;;;;;;4930450;29;20043;-83
2022/08/24 01:51:56;;;;;;;30.25;27.25;;;19.50;99.90;;;;;;4911661;29;20040;-83
2022/08/24 01:54:21;;;;;;;31.48;28.15;;;19.40;99.90;;;;;;4911843;29;20043;-83
2022/08/24 01:56:47;;;;;;;30.55;27.50;;;19.40;99.90;;;;;;4912351;29;20051;-83
2022/08/24 01:59:13;;;;;;;29.90;26.63;;;19.40;99.90;;;;;;4926290;29;20037;-83
2022/08/24 02:01:46;;;;;;;28.85;25.42;;;19.40;99.90;;;;;;4937196;29;20567;-83
2022/08/24 02:04:11;;;;;;;29.85;26.85;;;19.40;99.90;;;;;;4921574;29;20106;-83
2022/08/24 02:06:37;;;;;;;30.83;25.83;;;19.40;99.90;;;;;;4909991;29;20044;-83
2022/08/24 02:09:04;;;;;;;28.65;25.90;;;19.40;99.90;;;;;;4920033;29;20102;-83
2022/08/24 02:11:31;;;;;;;30.30;27.10;;;19.40;99.90;;;;;;4915420;29;20059;-83
2022/08/24 02:13:56;;;;;;;30.77;27.70;;;19.30;99.90;;;;;;4911584;29;20044;-84
2022/08/24 02:16:22;;;;;;;34.53;31.02;;;19.30;99.90;;;;;;4927636;29;20047;-84
2022/08/24 02:18:48;;;;;;;33.72;30.40;;;19.30;99.90;;;;;;4931538;29;20071;-83
2022/08/24 02:21:15;;;;;;;32.70;29.42;;;19.20;99.90;;;;;;4927006;29;20050;-82
2022/08/24 02:23:42;;;;;;;31.15;27.98;;;19.20;99.90;;;;;;4919641;29;20109;-84
2022/08/24 02:26:10;;;;;;;31.15;28.08;;;19.20;99.90;;;;;;4917477;29;20099;-83
2022/08/24 02:28:37;;;;;;;31.80;28.30;;;19.20;99.90;;;;;;4894063;29;20388;-83
2022/08/24 02:31:05;;;;;;;33.97;30.55;;;19.20;99.90;;;;;;4918649;29;20139;-83
2022/08/24 02:33:31;;;;;;;34.78;31.17;;;19.20;99.90;;;;;;4907657;29;20040;-83
2022/08/24 02:35:57;;;;;;;31.58;28.38;;;19.10;99.90;;;;;;4933142;29;20122;-83
2022/08/24 02:38:23;;;;;;;31.52;28.33;;;19.10;99.90;;;;;;4916123;29;20107;-83
2022/08/24 02:40:48;;;;;;;33.88;30.38;;;19.00;99.90;;;;;;4913149;29;20059;-83
2022/08/24 02:43:14;;;;;;;34.38;30.88;;;19.00;99.90;;;;;;4928528;29;20435;-83
2022/08/24 02:45:42;;;;;;;35.45;31.92;;;19.00;99.90;;;;;;4905663;29;20075;-83
2022/08/24 02:48:09;;;;;;;35.92;32.30;;;19.00;99.90;;;;;;4933323;29;20079;-83
2022/08/24 02:50:40;;;;;;;34.20;30.90;;;19.00;99.90;;;;;;4932689;29;20327;-83
2022/08/24 02:53:06;;;;;;;34.63;31.13;;;18.90;99.90;;;;;;4924204;29;20051;-83
2022/08/24 02:55:31;;;;;;;33.10;29.75;;;18.90;99.90;;;;;;4914800;29;20106;-83
2022/08/24 02:57:57;;;;;;;32.85;29.40;;;18.90;99.90;;;;;;4916038;29;20054;-83
2022/08/24 03:00:23;;;;;;;30.52;27.48;;;18.80;99.90;;;;;;4916554;29;20044;-83
2022/08/24 03:02:50;;;;;;;30.63;27.60;;;18.80;99.90;;;;;;4928989;29;20091;-83
2022/08/24 03:05:16;;;;;;;31.13;27.83;;;18.80;99.90;;;;;;4900449;29;20039;-83
2022/08/24 03:07:42;;;;;;;30.85;27.85;;;18.80;99.90;;;;;;4915154;29;20058;-83
2022/08/24 03:10:08;;;;;;;34.00;30.67;;;18.80;99.90;;;;;;4929566;29;20047;-83
2022/08/24 03:12:34;;;;;;;32.78;29.38;;;18.80;99.90;;;;;;4931187;29;20048;-83
2022/08/24 03:15:01;;;;;;;31.02;27.90;;;18.80;99.90;;;;;;4911622;29;20044;-83
2022/08/24 03:17:29;;;;;;;31.73;28.63;;;18.80;99.90;;;;;;4895138;29;20511;-83
2022/08/24 03:19:56;;;;;;;28.55;25.75;;;18.80;99.90;;;;;;4927349;29;20052;-83
2022/08/24 03:22:22;;;;;;;31.58;28.58;;;18.80;99.90;;;;;;4890794;29;20040;-83
2022/08/24 03:24:47;;;;;;;29.33;26.27;;;18.80;99.90;;;;;;4914326;29;20035;-83
2022/08/24 03:27:13;;;;;;;29.00;25.88;;;18.80;99.90;;;;;;4916560;29;20533;-83
2022/08/24 03:29:39;;;;;;;33.42;29.92;;;18.80;99.90;;;;;;4915147;29;20549;-83
2022/08/24 03:32:05;;;;;;;31.00;27.92;;;18.80;99.90;;;;;;4899874;29;20043;-83
2022/08/24 03:34:30;;;;;;;35.80;32.10;;;18.80;99.90;;;;;;4892153;29;20071;-83
2022/08/24 03:36:56;;;;;;;37.85;33.78;;;18.80;99.90;;;;;;4911082;29;20055;-83
2022/08/24 03:39:22;;;;;;;42.05;34.10;;;18.70;99.90;;;;;;4902206;29;20481;-83
2022/08/24 03:41:48;;;;;;;37.70;33.90;;;18.70;99.90;;;;;;4896004;29;20040;-83
2022/08/24 03:44:14;;;;;;;35.67;31.50;;;18.70;99.90;;;;;;4900937;29;20405;-83
2022/08/24 03:46:40;;;;;;;34.55;31.20;;;18.70;99.90;;;;;;4917658;29;20048;-84
2022/08/24 03:49:08;;;;;;;37.05;33.40;;;18.60;99.90;;;;;;4930005;29;20111;-84
2022/08/24 03:51:35;;;;;;;37.58;33.80;;;18.60;99.90;;;;;;4934796;29;20142;-83
2022/08/24 03:54:02;;;;;;;38.45;34.35;;;18.60;99.90;;;;;;4932470;29;20063;-83
2022/08/24 03:56:28;;;;;;;37.00;33.20;;;18.60;99.90;;;;;;4935265;29;20070;-84
2022/08/24 03:58:55;;;;;;;36.15;32.30;;;18.60;99.90;;;;;;4900034;29;20048;-84
2022/08/24 04:01:20;;;;;;;36.38;32.63;;;18.50;99.90;;;;;;4925112;29;20046;-83
2022/08/24 04:03:47;;;;;;;36.60;32.78;;;18.60;99.90;;;;;;4878543;29;20041;-83
2022/08/24 04:06:15;;;;;;;35.40;31.60;;;18.50;99.90;;;;;;4934283;29;20043;-83
2022/08/24 04:08:42;;;;;;;34.10;30.77;;;18.50;99.90;;;;;;4910565;29;20115;-84
2022/08/24 04:11:16;;;;;;;34.45;30.95;;;18.50;99.90;;;;;;4925903;29;20103;-83
2022/08/24 04:13:43;;;;;;;34.22;30.85;;;18.40;99.90;;;;;;4926101;29;20048;-83
2022/08/24 04:16:14;;;;;;;34.70;31.15;;;18.40;99.90;;;;;;4912780;29;20067;-83
2022/08/24 04:18:40;;;;;;;34.90;31.27;;;18.40;99.90;;;;;;4921622;29;20537;-83
2022/08/24 04:21:13;;;;;;;33.80;30.35;;;18.40;99.90;;;;;;4912535;29;20051;-83
2022/08/24 04:23:39;;;;;;;36.08;32.50;;;18.40;99.90;;;;;;4915122;29;20055;-83
2022/08/24 04:26:05;;;;;;;34.00;30.38;;;18.40;99.90;;;;;;4930760;29;20040;-83
2022/08/24 04:28:31;;;;;;;35.42;31.88;;;18.30;99.90;;;;;;4895630;29;20044;-83
2022/08/24 04:30:57;;;;;;;34.05;30.75;;;18.30;99.90;;;;;;4918872;29;20526;-84
2022/08/24 04:33:22;;;;;;;35.55;31.85;;;18.30;99.90;;;;;;4918897;29;20044;-83
2022/08/24 04:35:48;;;;;;;35.03;31.52;;;18.30;99.90;;;;;;4930934;29;20047;-83
2022/08/24 04:38:18;;;;;;;35.38;31.65;;;18.30;99.90;;;;;;4928006;29;20373;-83
2022/08/24 04:40:45;;;;;;;35.78;32.17;;;18.30;99.90;;;;;;4914748;29;20035;-83
2022/08/24 04:43:13;;;;;;;37.75;33.67;;;18.30;99.90;;;;;;4921085;29;20553;-84
2022/08/24 04:45:45;;;;;;;36.75;33.08;;;18.20;99.90;;;;;;4916726;29;20427;-84
2022/08/24 04:48:13;;;;;;;35.42;31.85;;;18.30;99.90;;;;;;4918785;29;20058;-83
2022/08/24 04:50:41;;;;;;;36.72;33.03;;;18.20;99.90;;;;;;4927237;29;20407;-83
2022/08/24 04:53:08;;;;;;;35.53;32.05;;;18.20;99.90;;;;;;4909086;29;20098;-83
2022/08/24 04:55:42;;;;;;;38.17;34.10;;;18.20;99.90;;;;;;4917242;29;20127;-83
2022/08/24 04:58:08;;;;;;;37.33;33.28;;;18.20;99.90;;;;;;4897818;29;20123;-84
2022/08/24 05:00:34;;;;;;;37.92;34.03;;;18.20;99.90;;;;;;4898075;29;20040;-83
2022/08/24 05:03:00;;;;;;;38.47;34.38;;;18.20;99.90;;;;;;4914393;29;20040;-84
2022/08/24 05:05:25;;;;;;;38.22;34.20;;;18.20;99.90;;;;;;4914985;29;20120;-83
2022/08/24 05:07:51;;;;;;;43.55;37.28;;;18.20;99.90;;;;;;4898200;29;20043;-83
2022/08/24 05:10:17;;;;;;;41.15;36.80;;;18.20;99.90;;;;;;4917621;29;20075;-83
2022/08/24 05:12:43;;;;;;;41.78;35.17;;;18.20;99.90;;;;;;4918155;29;20076;-83
2022/08/24 05:15:11;;;;;;;38.40;34.42;;;18.20;99.90;;;;;;4934086;29;20131;-84
2022/08/24 05:17:39;;;;;;;39.75;35.67;;;18.20;99.90;;;;;;4910501;29;20044;-83
2022/08/24 05:20:08;;;;;;;39.42;35.45;;;18.20;99.90;;;;;;4900310;29;20079;-84
2022/08/24 05:22:34;;;;;;;40.15;36.05;;;18.20;99.90;;;;;;4922267;29;20094;-84
2022/08/24 05:24:59;;;;;;;43.65;37.92;;;18.30;99.90;;;;;;4917371;29;20044;-83
2022/08/24 05:27:25;;;;;;;43.85;38.65;;;18.20;99.90;;;;;;4931674;29;20048;-83
2022/08/24 05:29:54;;;;;;;42.22;37.72;;;18.30;99.90;;;;;;4915016;29;20048;-84
2022/08/24 05:32:20;;;;;;;40.00;35.83;;;18.30;99.90;;;;;;4904231;29;20039;-84
2022/08/24 05:34:47;;;;;;;40.65;36.28;;;18.30;99.90;;;;;;4904484;29;20526;-84
2022/08/24 05:37:13;;;;;;;43.28;38.80;;;18.30;99.90;;;;;;4937294;29;20044;-83
2022/08/24 05:39:38;;;;;;;46.28;41.22;;;18.30;99.90;;;;;;4903456;29;20047;-83
2022/08/24 05:42:04;;;;;;;45.42;38.17;;;18.40;99.90;;;;;;4930824;29;20040;-84
2022/08/24 05:44:30;;;;;;;44.17;37.00;;;18.40;99.90;;;;;;4905385;29;20090;-83
2022/08/24 05:46:57;;;;;;;40.55;36.22;;;18.40;99.90;;;;;;4922017;29;20451;-83
2022/08/24 05:49:24;;;;;;;45.13;40.20;;;18.50;99.90;;;;;;4903241;29;20551;-83
2022/08/24 05:51:50;;;;;;;41.90;37.50;;;18.50;99.90;;;;;;4918945;29;20091;-84
2022/08/24 05:54:16;;;;;;;41.67;37.25;;;18.50;99.90;;;;;;4903979;29;20531;-84
2022/08/24 05:56:43;;;;;;;41.33;36.92;;;18.60;99.90;;;;;;4903160;29;20127;-84
2022/08/24 05:59:09;;;;;;;42.45;37.80;;;18.60;99.90;;;;;;4920717;29;20389;-84
2022/08/24 06:01:35;;;;;;;42.60;38.00;;;18.60;99.90;;;;;;4901414;29;20040;-84
2022/08/24 06:04:01;;;;;;;48.17;41.92;;;18.70;99.90;;;;;;4936274;29;20034;-84
2022/08/24 06:06:27;;;;;;;50.83;43.00;;;18.70;99.90;;;;;;4901534;29;20036;-83
2022/08/24 06:08:56;;;;;;;51.03;42.15;;;18.80;99.90;;;;;;4918949;29;20164;-83
2022/08/24 06:11:24;;;;;;;52.17;43.03;;;18.90;99.90;;;;;;4933441;29;20054;-83
2022/08/24 06:13:52;;;;;;;46.38;41.55;;;19.00;99.90;;;;;;4934128;29;20054;-83
2022/08/24 06:16:18;;;;;;;44.10;39.60;;;19.00;99.90;;;;;;4934764;29;20408;-82
2022/08/24 06:18:43;;;;;;;49.15;38.17;;;19.00;99.90;;;;;;4915090;29;20464;-83
2022/08/24 06:21:12;;;;;;;46.28;41.00;;;19.10;99.90;;;;;;4915721;29;20100;-85
2022/08/24 06:23:39;;;;;;;44.08;39.33;;;19.20;99.90;;;;;;4934035;29;20545;-83
2022/08/24 06:28:51;;;;;;;49.95;43.90;;;19.30;99.90;;;;;;4923032;29;20055;-84
2022/08/24 06:31:17;;;;;;;47.22;42.08;;;19.30;99.90;;;;;;4936808;29;20074;-86
2022/08/24 06:33:43;;;;;;;50.63;43.78;;;19.40;99.90;;;;;;4935999;29;20434;-85
2022/08/24 06:36:09;;;;;;;49.63;41.47;;;19.50;99.90;;;;;;4901462;29;20077;-86
2022/08/24 06:38:36;;;;;;;49.78;44.45;;;19.50;99.90;;;;;;4925943;29;20044;-84
2022/08/24 06:41:02;;;;;;;49.35;43.55;;;19.50;99.90;;;;;;4920657;29;20397;-87
2022/08/24 06:43:28;;;;;;;50.15;42.85;;;19.60;99.90;;;;;;4936127;29;20047;-84
2022/08/24 06:45:56;;;;;;;49.45;43.95;;;19.70;99.90;;;;;;4902092;29;20514;-86
2022/08/24 06:48:22;;;;;;;47.67;42.35;;;19.80;99.90;;;;;;4930185;29;20123;-83
2022/08/24 06:50:48;;;;;;;47.88;41.33;;;19.90;99.90;;;;;;4918467;29;20044;-84
2022/08/24 06:53:15;;;;;;;47.10;42.05;;;20.10;99.90;;;;;;4920017;29;20082;-84
2022/08/24 06:56:00;;;;;;;44.60;39.72;;;20.30;99.90;;;;;;4933484;29;20040;-83
2022/08/24 06:58:27;;;;;;;41.78;37.28;;;20.60;99.90;;;;;;4935757;29;20051;-84
2022/08/24 07:00:55;;;;;;;38.17;34.10;;;21.00;99.90;;;;;;4933036;29;20048;-84
2022/08/24 07:03:22;;;;;;;38.55;34.40;;;21.40;99.90;;;;;;4904169;29;20044;-84
2022/08/24 07:05:55;;;;;;;35.85;32.05;;;21.80;99.90;;;;;;4919923;29;20050;-84
2022/08/24 07:08:21;;;;;;;39.33;32.55;;;22.30;99.90;;;;;;4908848;29;20043;-84
2022/08/24 07:10:47;;;;;;;35.22;31.45;;;22.60;99.90;;;;;;4918652;29;20043;-83
2022/08/24 07:13:13;;;;;;;33.53;30.02;;;23.00;99.90;;;;;;4920330;29;20048;-84
2022/08/24 07:15:41;;;;;;;32.20;28.73;;;23.30;99.90;;;;;;4900008;29;20047;-84
2022/08/24 07:18:10;;;;;;;31.40;28.33;;;23.50;99.90;;;;;;4924597;29;20138;-84
2022/08/24 07:20:36;;;;;;;30.90;27.60;;;23.70;99.90;;;;;;4917430;29;20039;-84
2022/08/24 07:23:04;;;;;;;29.70;26.60;;;24.00;99.90;;;;;;4903602;29;20534;-84
2022/08/24 07:25:31;;;;;;;29.38;26.13;;;24.20;99.90;;;;;;4901605;29;20379;-83
2022/08/24 07:27:59;;;;;;;27.88;25.08;;;24.40;99.90;;;;;;4934644;29;20114;-83
2022/08/24 07:30:25;;;;;;;26.70;23.60;;;24.60;99.90;;;;;;4918059;29;20055;-83
2022/08/24 07:32:52;;;;;;;27.15;24.42;;;24.80;99.90;;;;;;4912040;29;20099;-82
2022/08/24 07:35:18;;;;;;;22.92;20.60;;;25.00;99.90;;;;;;4935439;29;20079;-80
2022/08/24 07:37:43;;;;;;;21.08;18.70;;;25.20;99.90;;;;;;4916490;29;20075;-80
2022/08/24 07:40:10;;;;;;;24.80;19.05;;;25.30;99.90;;;;;;4917675;29;20123;-80
2022/08/24 07:42:35;;;;;;;21.10;18.90;;;25.50;99.90;;;;;;4900705;29;20043;-78
2022/08/24 07:45:02;;;;;;;24.85;18.27;;;25.50;99.90;;;;;;4916953;29;20461;-78
2022/08/24 07:47:28;;;;;;;19.40;16.92;;;25.70;99.90;;;;;;4930929;29;20044;-80
2022/08/24 07:49:53;;;;;;;20.15;16.08;;;25.70;99.90;;;;;;4897488;29;20095;-78
2022/08/24 07:52:19;;;;;;;16.95;15.18;;;25.80;99.90;;;;;;4927170;29;20473;-78
2022/08/24 07:54:45;;;;;;;17.48;15.50;;;25.90;99.90;;;;;;4911021;29;20158;-79
2022/08/24 07:57:11;;;;;;;17.05;14.93;;;26.00;99.90;;;;;;4902918;29;20036;-78
2022/08/24 07:59:37;;;;;;;21.10;16.33;;;26.00;99.90;;;;;;4934333;29;20048;-78
2022/08/24 08:02:04;;;;;;;26.10;15.23;;;25.90;99.90;;;;;;4900877;29;20102;-78
2022/08/24 08:04:31;;;;;;;19.83;17.48;;;25.90;99.90;;;;;;4904841;29;20039;-79
2022/08/24 08:06:59;;;;;;;23.70;16.80;;;25.90;99.90;;;;;;4902198;29;20043;-79
2022/08/24 08:09:25;;;;;;;20.05;12.90;;;25.70;99.90;;;;;;4933760;29;20228;-78
2022/08/24 08:11:51;;;;;;;19.17;13.20;;;25.70;99.90;;;;;;4932874;29;20044;-78
2022/08/24 08:14:17;;;;;;;12.18;10.88;;;25.50;99.90;;;;;;4911380;29;20404;-79
2022/08/24 08:16:43;;;;;;;16.02;11.25;;;25.40;99.90;;;;;;4895413;29;20044;-79
2022/08/24 08:19:09;;;;;;;16.77;12.13;;;25.30;99.90;;;;;;4916799;29;20135;-79
2022/08/24 08:24:25;;;;;;;17.77;14.85;;;25.20;99.90;;;;;;4929276;29;20051;-79
2022/08/24 08:26:51;;;;;;;18.63;14.95;;;25.10;99.90;;;;;;4917506;29;20039;-79
2022/08/24 08:29:18;;;;;;;18.55;14.13;;;25.10;99.90;;;;;;4926576;29;20079;-78
2022/08/24 08:31:44;;;;;;;21.85;14.48;;;25.00;99.90;;;;;;4916689;29;20082;-79
2022/08/24 08:34:11;;;;;;;18.17;14.13;;;25.00;99.90;;;;;;4932467;29;20040;-78
2022/08/24 08:36:39;;;;;;;20.95;15.15;;;25.00;99.90;;;;;;4901213;29;20044;-78
2022/08/24 08:39:06;;;;;;;20.20;13.88;;;25.10;99.90;;;;;;4916340;29;20048;-78
2022/08/24 08:41:59;;;;;;;18.27;13.43;;;25.10;99.90;;;;;;4916357;29;20405;-78
2022/08/24 08:44:24;;;;;;;17.65;12.38;;;25.20;99.90;;;;;;4917495;29;20507;-79
2022/08/24 08:47:02;;;;;;;17.33;13.38;;;25.20;99.90;;;;;;4916876;29;20055;-79
2022/08/24 08:49:57;;;;;;;15.23;11.95;;;25.40;99.90;;;;;;4932649;29;20047;-78
2022/08/24 08:52:53;;;;;;;17.95;12.43;;;25.50;99.90;;;;;;4911974;29;20118;-78
2022/08/24 08:55:38;;;;;;;17.35;12.40;;;25.50;99.90;;;;;;4938880;29;20055;-79
2022/08/24 08:58:14;;;;;;;14.68;12.88;;;25.40;99.90;;;;;;4927439;29;20130;-78
2022/08/24 09:01:14;;;;;;;15.63;12.23;;;25.40;99.90;;;;;;4930926;29;20040;-78
2022/08/24 09:04:04;;;;;;;15.98;10.80;;;25.30;99.90;;;;;;4929607;29;20079;-78
2022/08/24 09:06:58;;;;;;;16.05;9.60;;;25.30;99.90;;;;;;4922304;29;20094;-76
2022/08/24 09:10:02;;;;;;;12.75;10.13;;;25.30;99.90;;;;;;4909086;29;20052;-76
2022/08/24 09:12:51;;;;;;;9.35;7.32;;;25.30;99.90;;;;;;4921978;29;20039;-79
2022/08/24 09:15:55;;;;;;;12.15;7.45;;;25.20;99.90;;;;;;4912319;29;20399;-79
2022/08/24 09:18:27;;;;;;;13.10;9.77;;;25.20;99.90;;;;;;4919010;29;20051;-79
2022/08/24 09:21:17;;;;;;;11.60;9.27;;;25.20;99.90;;;;;;4920407;29;20094;-78
2022/08/24 09:23:42;;;;;;;12.82;8.43;;;25.20;99.90;;;;;;4920189;29;20047;-79
2022/08/24 09:26:19;;;;;;;11.65;6.28;;;25.20;99.90;;;;;;4920059;29;20035;-78
2022/08/24 09:28:52;;;;;;;8.07;6.22;;;25.20;99.90;;;;;;4925832;29;20588;-79
2022/08/24 09:31:37;;;;;;;7.22;5.80;;;25.20;99.90;;;;;;4919965;29;20131;-79
2022/08/24 09:34:15;;;;;;;8.93;6.40;;;25.30;99.90;;;;;;4927359;29;20058;-79
2022/08/24 09:37:18;;;;;;;7.65;5.00;;;25.30;99.90;;;;;;4935568;29;20098;-79
2022/08/24 09:39:50;;;;;;;6.40;4.68;;;25.40;99.90;;;;;;4935459;29;20047;-79
2022/08/24 09:42:25;;;;;;;8.20;5.00;;;25.40;99.90;;;;;;4918971;29;20481;-79
2022/08/24 09:45:12;;;;;;;9.50;4.63;;;25.40;99.90;;;;;;4932465;29;20420;-79
2022/08/24 09:48:09;;;;;;;4.88;4.30;;;25.40;99.90;;;;;;4936458;29;20062;-79
2022/08/24 09:50:51;;;;;;;9.18;5.57;;;25.50;99.90;;;;;;4929503;29;20086;-79
2022/08/24 09:53:54;;;;;;;11.63;4.60;;;25.50;99.90;;;;;;4919994;29;20043;-79
2022/08/24 09:56:52;;;;;;;8.73;4.70;;;25.60;99.90;;;;;;4919781;29;20095;-79
2022/08/24 09:59:42;;;;;;;7.47;5.00;;;25.50;99.90;;;;;;4936408;29;20130;-79
2022/08/24 10:02:46;;;;;;;6.40;5.00;;;25.60;99.90;;;;;;4928596;29;20052;-79
2022/08/24 10:05:25;;;;;;;7.30;5.32;;;25.60;99.90;;;;;;4935363;29;20044;-79
2022/08/24 10:08:15;;;;;;;8.13;6.15;;;25.60;99.90;;;;;;4935679;29;20043;-78
2022/08/24 10:11:09;;;;;;;8.23;4.85;;;25.60;99.90;;;;;;4916956;29;20075;-78
2022/08/24 10:13:37;;;;;;;4.90;3.95;;;25.60;99.90;;;;;;4926633;29;20048;-79
2022/08/24 10:16:12;;;;;;;10.70;3.83;;;25.60;99.90;;;;;;4935378;29;20066;-78
2022/08/24 10:18:56;;;;;;;7.05;4.20;;;25.70;99.90;;;;;;4937974;29;20054;-78
2022/08/24 10:21:57;;;;;;;8.48;4.82;;;25.70;99.90;;;;;;4938332;29;20118;-78
2022/08/24 10:24:52;;;;;;;5.30;4.25;;;25.70;99.90;;;;;;4911066;29;20093;-78
2022/08/24 10:27:44;;;;;;;6.82;4.65;;;25.80;99.90;;;;;;4930013;29;20364;-79
2022/08/24 10:30:38;;;;;;;7.82;4.72;;;25.80;99.90;;;;;;4912759;29;20047;-78
2022/08/24 10:33:22;;;;;;;8.27;6.15;;;25.80;99.90;;;;;;4935290;29;20050;-78
2022/08/24 10:36:02;;;;;;;8.73;5.05;;;25.90;99.90;;;;;;4922457;29;20412;-79
2022/08/24 10:41:51;;;;;;;5.20;4.70;;;25.90;99.90;;;;;;4925746;29;20059;-79
2022/08/24 10:44:29;;;;;;;5.85;4.20;;;26.00;99.90;;;;;;4914845;29;20040;-78
2022/08/24 10:46:59;;;;;;;5.90;3.10;;;26.00;99.90;;;;;;4930631;29;20070;-79
2022/08/24 10:49:51;;;;;;;3.78;2.80;;;26.00;99.90;;;;;;4919463;29;20571;-78
2022/08/24 10:52:38;;;;;;;4.40;3.10;;;26.00;99.90;;;;;;4933843;29;20115;-78
2022/08/24 10:55:22;;;;;;;5.35;3.28;;;26.10;99.90;;;;;;4932049;29;20134;-79
2022/08/24 10:58:29;;;;;;;15.00;3.85;;;26.10;99.90;;;;;;4935483;29;20048;-78
2022/08/24 11:01:11;;;;;;;4.05;3.08;;;26.10;99.90;;;;;;4915332;29;20059;-79
2022/08/24 11:03:52;;;;;;;5.95;2.42;;;26.10;99.90;;;;;;4919010;29;20043;-79
2022/08/24 11:06:19;;;;;;;4.68;2.45;;;26.10;99.90;;;;;;4929217;29;20062;-78
2022/08/24 11:08:59;;;;;;;4.18;1.95;;;26.10;99.90;;;;;;4932466;29;20043;-78
2022/08/24 11:11:29;;;;;;;2.45;1.88;;;26.20;99.90;;;;;;4918951;29;20484;-78
2022/08/24 11:13:59;;;;;;;2.90;2.10;;;26.20;99.90;;;;;;4918677;29;20055;-79
2022/08/24 11:16:31;;;;;;;5.30;3.22;;;26.30;99.90;;;;;;4936108;29;20496;-78
2022/08/24 11:18:59;;;;;;;4.30;2.92;;;26.30;99.90;;;;;;4934263;29;20122;-79
2022/08/24 11:21:39;;;;;;;5.68;2.50;;;26.40;99.90;;;;;;4917652;29;20063;-79
2022/08/24 11:24:11;;;;;;;6.78;3.33;;;26.40;99.90;;;;;;4934693;29;20035;-79
2022/08/24 11:26:49;;;;;;;5.30;2.95;;;26.40;99.90;;;;;;4916438;29;20046;-79
2022/08/24 11:29:14;;;;;;;7.30;3.15;;;26.50;99.90;;;;;;4934503;29;20073;-79
2022/08/24 11:31:43;;;;;;;4.25;2.92;;;26.50;99.90;;;;;;4934266;29;20519;-78
2022/08/24 11:34:15;;;;;;;5.10;2.90;;;26.60;99.90;;;;;;4918659;29;20406;-78
2022/08/24 11:36:41;;;;;;;5.85;2.97;;;26.70;99.90;;;;;;4934640;29;20130;-79
2022/08/24 11:39:20;;;;;;;8.52;2.78;;;26.70;99.90;;;;;;4934916;29;20075;-79
2022/08/24 11:41:55;;;;;;;8.68;2.90;;;26.80;99.90;;;;;;4918456;29;20043;-78
2022/08/24 11:44:38;;;;;;;4.43;2.70;;;26.70;99.90;;;;;;4918998;29;20083;-78
2022/08/24 11:47:38;;;;;;;6.93;2.70;;;26.80;99.90;;;;;;4915517;29;20499;-78
2022/08/24 11:50:34;;;;;;;3.17;2.42;;;26.80;99.90;;;;;;4925328;29;20047;-78
2022/08/24 11:53:12;;;;;;;4.60;2.33;;;26.80;99.90;;;;;;4927480;29;20049;-78
2022/08/24 11:55:59;;;;;;;4.65;1.98;;;26.90;99.90;;;;;;4934013;29;20073;-78
2022/08/24 11:58:31;;;;;;;3.88;1.90;;;27.00;99.90;;;;;;4927224;29;20044;-79
2022/08/24 12:01:11;;;;;;;5.95;2.00;;;27.00;99.90;;;;;;4923362;29;20503;-79
2022/08/24 12:04:02;;;;;;;4.85;2.40;;;27.00;99.70;;;;;;4930726;29;20040;-79
2022/08/24 12:06:42;;;;;;;3.80;1.80;;;27.10;99.30;;;;;;4918900;29;20127;-78
2022/08/24 12:09:20;;;;;;;3.25;1.90;;;27.00;99.60;;;;;;4935025;29;20135;-79
2022/08/24 12:12:26;;;;;;;5.70;2.17;;;27.00;99.80;;;;;;4934585;29;20055;-79
2022/08/24 12:15:07;;;;;;;3.20;2.05;;;26.90;99.90;;;;;;4934636;29;20063;-79
2022/08/24 12:17:43;;;;;;;4.18;2.10;;;27.00;99.90;;;;;;4922235;29;20105;-79
2022/08/24 12:20:21;;;;;;;3.10;1.88;;;27.00;99.50;;;;;;4908980;29;20044;-79
2022/08/24 12:22:48;;;;;;;6.30;2.08;;;27.10;99.70;;;;;;4934832;29;20040;-79
2022/08/24 12:27:59;;;;;;;3.10;1.88;;;27.20;99.60;;;;;;4933830;29;20084;-79
2022/08/24 12:30:26;;;;;;;3.33;1.90;;;27.30;99.30;;;;;;4934805;29;20047;-79
2022/08/24 12:33:05;;;;;;;4.80;1.80;;;27.40;99.10;;;;;;4934855;29;20461;-79
2022/08/24 12:35:39;;;;;;;3.38;1.80;;;27.50;99.20;;;;;;4937143;29;20119;-79
2022/08/24 12:38:23;;;;;;;4.20;1.90;;;27.60;99.20;;;;;;4933782;29;20681;-78
2022/08/24 12:41:02;;;;;;;3.42;1.80;;;27.70;98.90;;;;;;4922327;29;20310;-79
2022/08/24 12:43:34;;;;;;;2.92;1.63;;;27.80;98.40;;;;;;4922131;29;20080;-79
2022/08/24 12:46:01;;;;;;;3.00;1.50;;;27.90;98.40;;;;;;4937519;29;20135;-79
2022/08/24 12:48:29;;;;;;;3.58;1.67;;;28.00;98.10;;;;;;4937623;29;20063;-79
2022/08/24 12:51:31;;;;;;;3.65;1.80;;;27.90;97.80;;;;;;4919705;29;20047;-79
2022/08/24 12:54:23;;;;;;;2.78;1.40;;;27.90;98.10;;;;;;4935766;29;20044;-79
2022/08/24 12:57:26;;;;;;;4.18;1.75;;;28.00;98.20;;;;;;4918012;29;20039;-79
2022/08/24 12:59:56;;;;;;;3.42;1.70;;;28.20;98.10;;;;;;4935806;29;20044;-79
2022/08/24 13:02:23;;;;;;;2.80;1.30;;;28.50;97.30;;;;;;4937264;29;20501;-79
2022/08/24 13:04:48;;;;;;;5.55;1.77;;;28.90;97.30;;;;;;4936137;29;20484;-80
2022/08/24 13:07:20;;;;;;;2.20;1.40;;;29.30;96.50;;;;;;4938739;29;20043;-80
2022/08/24 13:09:52;;;;;;;2.00;1.30;;;29.60;96.10;;;;;;4937894;29;20086;-79
2022/08/24 13:12:38;;;;;;;1.92;1.27;;;29.80;95.50;;;;;;4913702;29;20051;-79